sensor_id;sensor_type;location;lat;lon;timestamp;temperature;humidity
34147;DHT22;20423;49.448;9.056;2023-05-07T00:00:23;11.90;99.90
34147;DHT22;20423;49.448;9.056;2023-05-07T00:02:49;11.90;99.90
34147;DHT22;20423;49.448;9.056;2023-05-07T00:05:14;12.00;99.90
34147;DHT22;20423;49.448;9.056;2023-05-07T00:07:40;12.00;99.90
34147;DHT22;20423;49.448;9.056;2023-05-07T00:10:06;12.00;99.90
34147;DHT22;20423;49.448;9.056;2023-05-07T00:12:32;12.10;99.90
34147;DHT22;20423;49.448;9.056;2023-05-07T00:15:04;12.00;99.90
34147;DHT22;20423;49.448;9.056;2023-05-07T00:17:31;12.10;99.90
34147;DHT22;20423;49.448;9.056;2023-05-07T00:19:56;12.10;99.90
34147;DHT22;20423;49.448;9.056;2023-05-07T00:22:22;12.00;99.90
34147;DHT22;20423;49.448;9.056;2023-05-07T00:24:48;11.90;99.90
34147;DHT22;20423;49.448;9.056;2023-05-07T00:27:13;11.90;99.90
34147;DHT22;20423;49.448;9.056;2023-05-07T00:29:39;11.90;99.90
34147;DHT22;20423;49.448;9.056;2023-05-07T00:32:05;11.80;99.90
34147;DHT22;20423;49.448;9.056;2023-05-07T00:34:30;11.80;99.90
34147;DHT22;20423;49.448;9.056;2023-05-07T00:36:56;11.70;99.90
34147;DHT22;20423;49.448;9.056;2023-05-07T00:39:22;11.70;99.90
34147;DHT22;20423;49.448;9.056;2023-05-07T00:41:47;11.80;99.90
34147;DHT22;20423;49.448;9.056;2023-05-07T00:44:13;11.70;99.90
34147;DHT22;20423;49.448;9.056;2023-05-07T00:46:40;11.70;99.90
34147;DHT22;20423;49.448;9.056;2023-05-07T00:49:06;11.70;99.90
34147;DHT22;20423;49.448;9.056;2023-05-07T00:51:33;11.70;99.90
34147;DHT22;20423;49.448;9.056;2023-05-07T00:54:00;11.60;99.90
34147;DHT22;20423;49.448;9.056;2023-05-07T00:56:26;11.60;99.90
34147;DHT22;20423;49.448;9.056;2023-05-07T00:58:52;11.60;99.90
34147;DHT22;20423;49.448;9.056;2023-05-07T01:01:18;11.60;99.90
34147;DHT22;20423;49.448;9.056;2023-05-07T01:03:44;11.60;99.90
34147;DHT22;20423;49.448;9.056;2023-05-07T01:06:23;11.60;99.90
34147;DHT22;20423;49.448;9.056;2023-05-07T01:12:03;11.70;99.90
34147;DHT22;20423;49.448;9.056;2023-05-07T01:14:29;11.70;99.90
34147;DHT22;20423;49.448;9.056;2023-05-07T01:16:56;11.80;99.90
34147;DHT22;20423;49.448;9.056;2023-05-07T01:19:23;11.80;99.90
34147;DHT22;20423;49.448;9.056;2023-05-07T01:21:51;11.90;99.90
34147;DHT22;20423;49.448;9.056;2023-05-07T01:24:22;11.90;99.90
34147;DHT22;20423;49.448;9.056;2023-05-07T01:26:47;11.90;99.90
34147;DHT22;20423;49.448;9.056;2023-05-07T01:29:15;11.80;99.90
34147;DHT22;20423;49.448;9.056;2023-05-07T01:31:41;11.80;99.90
34147;DHT22;20423;49.448;9.056;2023-05-07T01:34:36;11.90;99.90
34147;DHT22;20423;49.448;9.056;2023-05-07T01:37:02;11.80;99.90
34147;DHT22;20423;49.448;9.056;2023-05-07T01:39:29;11.70;99.90
34147;DHT22;20423;49.448;9.056;2023-05-07T01:41:55;11.70;99.90
34147;DHT22;20423;49.448;9.056;2023-05-07T01:44:23;11.80;99.90
34147;DHT22;20423;49.448;9.056;2023-05-07T01:46:50;11.70;99.90
34147;DHT22;20423;49.448;9.056;2023-05-07T01:49:16;11.70;99.90
34147;DHT22;20423;49.448;9.056;2023-05-07T01:51:43;11.70;99.90
34147;DHT22;20423;49.448;9.056;2023-05-07T01:54:09;11.70;99.90
34147;DHT22;20423;49.448;9.056;2023-05-07T01:56:35;11.80;99.90
34147;DHT22;20423;49.448;9.056;2023-05-07T01:59:02;11.80;99.90
34147;DHT22;20423;49.448;9.056;2023-05-07T02:01:28;11.70;99.90
34147;DHT22;20423;49.448;9.056;2023-05-07T02:03:54;11.70;99.90
34147;DHT22;20423;49.448;9.056;2023-05-07T02:06:24;11.60;99.90
34147;DHT22;20423;49.448;9.056;2023-05-07T02:08:54;11.70;99.90
34147;DHT22;20423;49.448;9.056;2023-05-07T02:11:20;11.70;99.90
34147;DHT22;20423;49.448;9.056;2023-05-07T02:13:46;11.70;99.90
34147;DHT22;20423;49.448;9.056;2023-05-07T02:16:11;11.70;99.90
34147;DHT22;20423;49.448;9.056;2023-05-07T02:18:39;11.60;99.90
34147;DHT22;20423;49.448;9.056;2023-05-07T02:21:05;11.60;99.90
34147;DHT22;20423;49.448;9.056;2023-05-07T02:23:31;11.50;99.90
34147;DHT22;20423;49.448;9.056;2023-05-07T02:25:58;11.50;99.90
34147;DHT22;20423;49.448;9.056;2023-05-07T02:28:23;11.50;99.90
34147;DHT22;20423;49.448;9.056;2023-05-07T02:30:53;11.50;99.90
34147;DHT22;20423;49.448;9.056;2023-05-07T02:33:19;11.50;99.90
34147;DHT22;20423;49.448;9.056;2023-05-07T02:35:46;11.60;99.90
34147;DHT22;20423;49.448;9.056;2023-05-07T02:38:14;11.60;99.90
34147;DHT22;20423;49.448;9.056;2023-05-07T02:40:40;11.60;99.90
34147;DHT22;20423;49.448;9.056;2023-05-07T02:43:06;11.60;99.90
34147;DHT22;20423;49.448;9.056;2023-05-07T02:45:32;11.60;99.90
34147;DHT22;20423;49.448;9.056;2023-05-07T02:47:59;11.70;99.90
34147;DHT22;20423;49.448;9.056;2023-05-07T02:50:25;11.70;99.90
34147;DHT22;20423;49.448;9.056;2023-05-07T02:53:24;11.70;99.90
34147;DHT22;20423;49.448;9.056;2023-05-07T02:55:59;11.70;99.90
34147;DHT22;20423;49.448;9.056;2023-05-07T02:58:25;11.80;99.90
34147;DHT22;20423;49.448;9.056;2023-05-07T03:00:51;11.80;99.90
34147;DHT22;20423;49.448;9.056;2023-05-07T03:03:30;11.80;99.90
34147;DHT22;20423;49.448;9.056;2023-05-07T03:05:56;11.80;99.90
34147;DHT22;20423;49.448;9.056;2023-05-07T03:08:22;11.70;99.90
34147;DHT22;20423;49.448;9.056;2023-05-07T03:10:48;11.60;99.90
34147;DHT22;20423;49.448;9.056;2023-05-07T03:13:13;11.60;99.90
34147;DHT22;20423;49.448;9.056;2023-05-07T03:15:39;11.60;99.90
34147;DHT22;20423;49.448;9.056;2023-05-07T03:18:05;11.60;99.90
34147;DHT22;20423;49.448;9.056;2023-05-07T03:20:31;11.50;99.90
34147;DHT22;20423;49.448;9.056;2023-05-07T03:22:57;11.60;99.90
34147;DHT22;20423;49.448;9.056;2023-05-07T03:25:23;11.50;99.90
34147;DHT22;20423;49.448;9.056;2023-05-07T03:27:49;11.40;99.90
34147;DHT22;20423;49.448;9.056;2023-05-07T03:30:18;11.40;99.90
34147;DHT22;20423;49.448;9.056;2023-05-07T03:32:43;11.40;99.90
34147;DHT22;20423;49.448;9.056;2023-05-07T03:35:11;11.40;99.90
34147;DHT22;20423;49.448;9.056;2023-05-07T03:37:38;11.40;99.90
34147;DHT22;20423;49.448;9.056;2023-05-07T03:40:05;11.40;99.90
34147;DHT22;20423;49.448;9.056;2023-05-07T03:42:40;11.40;99.90
34147;DHT22;20423;49.448;9.056;2023-05-07T03:45:06;11.30;99.90
34147;DHT22;20423;49.448;9.056;2023-05-07T03:47:33;11.40;99.90
34147;DHT22;20423;49.448;9.056;2023-05-07T03:49:59;11.40;99.90
34147;DHT22;20423;49.448;9.056;2023-05-07T03:52:25;11.30;99.90
34147;DHT22;20423;49.448;9.056;2023-05-07T03:54:53;11.30;99.90
34147;DHT22;20423;49.448;9.056;2023-05-07T03:57:20;11.30;99.90
34147;DHT22;20423;49.448;9.056;2023-05-07T03:59:45;11.20;99.90
34147;DHT22;20423;49.448;9.056;2023-05-07T04:02:11;11.20;99.90
34147;DHT22;20423;49.448;9.056;2023-05-07T04:04:37;11.10;99.90
34147;DHT22;20423;49.448;9.056;2023-05-07T04:07:03;11.10;99.90
34147;DHT22;20423;49.448;9.056;2023-05-07T04:09:31;11.20;99.90
34147;DHT22;20423;49.448;9.056;2023-05-07T04:11:57;11.20;99.90
34147;DHT22;20423;49.448;9.056;2023-05-07T04:14:22;11.20;99.90
34147;DHT22;20423;49.448;9.056;2023-05-07T04:16:48;11.30;99.90
34147;DHT22;20423;49.448;9.056;2023-05-07T04:19:14;11.40;99.90
34147;DHT22;20423;49.448;9.056;2023-05-07T04:21:40;11.40;99.90
34147;DHT22;20423;49.448;9.056;2023-05-07T04:24:06;11.40;99.90
34147;DHT22;20423;49.448;9.056;2023-05-07T04:26:32;11.40;99.90
34147;DHT22;20423;49.448;9.056;2023-05-07T04:28:58;11.40;99.90
34147;DHT22;20423;49.448;9.056;2023-05-07T04:31:29;11.40;99.90
34147;DHT22;20423;49.448;9.056;2023-05-07T04:33:56;11.40;99.90
34147;DHT22;20423;49.448;9.056;2023-05-07T04:36:21;11.40;99.90
34147;DHT22;20423;49.448;9.056;2023-05-07T04:38:53;11.50;99.90
34147;DHT22;20423;49.448;9.056;2023-05-07T04:41:19;11.50;99.90
34147;DHT22;20423;49.448;9.056;2023-05-07T04:44:10;11.60;99.90
34147;DHT22;20423;49.448;9.056;2023-05-07T04:46:37;11.80;99.90
34147;DHT22;20423;49.448;9.056;2023-05-07T04:49:02;11.80;99.90
34147;DHT22;20423;49.448;9.056;2023-05-07T04:51:35;12.00;99.90
34147;DHT22;20423;49.448;9.056;2023-05-07T04:57:55;12.40;99.90
34147;DHT22;20423;49.448;9.056;2023-05-07T05:00:22;12.70;99.90
34147;DHT22;20423;49.448;9.056;2023-05-07T05:02:50;12.90;99.90
34147;DHT22;20423;49.448;9.056;2023-05-07T05:05:19;13.10;99.90
34147;DHT22;20423;49.448;9.056;2023-05-07T05:07:46;13.30;99.90
34147;DHT22;20423;49.448;9.056;2023-05-07T05:10:11;13.30;99.90
34147;DHT22;20423;49.448;9.056;2023-05-07T05:12:39;13.50;99.90
34147;DHT22;20423;49.448;9.056;2023-05-07T05:15:06;13.60;99.90
34147;DHT22;20423;49.448;9.056;2023-05-07T05:17:32;13.70;99.90
34147;DHT22;20423;49.448;9.056;2023-05-07T05:20:00;13.80;99.90
34147;DHT22;20423;49.448;9.056;2023-05-07T05:22:26;13.90;99.90
34147;DHT22;20423;49.448;9.056;2023-05-07T05:24:55;14.00;99.90
34147;DHT22;20423;49.448;9.056;2023-05-07T05:27:21;14.20;99.90
34147;DHT22;20423;49.448;9.056;2023-05-07T05:29:47;14.20;99.90
34147;DHT22;20423;49.448;9.056;2023-05-07T05:32:13;14.30;99.90
34147;DHT22;20423;49.448;9.056;2023-05-07T05:34:39;14.40;99.90
34147;DHT22;20423;49.448;9.056;2023-05-07T05:37:05;14.50;99.90
34147;DHT22;20423;49.448;9.056;2023-05-07T05:39:31;14.50;99.90
34147;DHT22;20423;49.448;9.056;2023-05-07T05:41:58;14.60;99.90
34147;DHT22;20423;49.448;9.056;2023-05-07T05:44:24;14.80;99.90
34147;DHT22;20423;49.448;9.056;2023-05-07T05:46:50;14.90;99.90
34147;DHT22;20423;49.448;9.056;2023-05-07T05:49:16;15.00;99.90
34147;DHT22;20423;49.448;9.056;2023-05-07T05:51:43;15.00;99.90
34147;DHT22;20423;49.448;9.056;2023-05-07T05:54:09;15.10;99.90
34147;DHT22;20423;49.448;9.056;2023-05-07T05:56:34;15.20;99.90
34147;DHT22;20423;49.448;9.056;2023-05-07T05:59:01;15.40;99.90
34147;DHT22;20423;49.448;9.056;2023-05-07T06:01:27;15.40;99.90
34147;DHT22;20423;49.448;9.056;2023-05-07T06:03:56;15.60;99.90
34147;DHT22;20423;49.448;9.056;2023-05-07T06:06:21;15.60;99.90
34147;DHT22;20423;49.448;9.056;2023-05-07T06:08:47;15.80;99.90
34147;DHT22;20423;49.448;9.056;2023-05-07T06:11:18;15.80;99.90
34147;DHT22;20423;49.448;9.056;2023-05-07T06:13:45;15.80;99.90
34147;DHT22;20423;49.448;9.056;2023-05-07T06:16:11;15.90;99.90
34147;DHT22;20423;49.448;9.056;2023-05-07T06:18:37;15.90;99.90
34147;DHT22;20423;49.448;9.056;2023-05-07T06:21:03;16.00;99.90
34147;DHT22;20423;49.448;9.056;2023-05-07T06:23:32;16.30;99.90
34147;DHT22;20423;49.448;9.056;2023-05-07T06:25:59;16.60;99.90
34147;DHT22;20423;49.448;9.056;2023-05-07T06:28:29;16.80;99.90
34147;DHT22;20423;49.448;9.056;2023-05-07T06:31:14;16.90;99.90
34147;DHT22;20423;49.448;9.056;2023-05-07T06:33:43;16.80;99.90
34147;DHT22;20423;49.448;9.056;2023-05-07T06:36:09;17.00;99.90
34147;DHT22;20423;49.448;9.056;2023-05-07T06:38:38;17.00;99.90
34147;DHT22;20423;49.448;9.056;2023-05-07T06:41:06;17.00;99.90
34147;DHT22;20423;49.448;9.056;2023-05-07T06:43:31;17.00;99.90
34147;DHT22;20423;49.448;9.056;2023-05-07T06:46:16;17.10;99.90
34147;DHT22;20423;49.448;9.056;2023-05-07T06:48:42;17.00;99.90
34147;DHT22;20423;49.448;9.056;2023-05-07T06:51:08;17.00;99.90
34147;DHT22;20423;49.448;9.056;2023-05-07T06:53:35;17.00;99.90
34147;DHT22;20423;49.448;9.056;2023-05-07T06:56:02;16.90;99.90
34147;DHT22;20423;49.448;9.056;2023-05-07T06:58:28;17.10;99.90
34147;DHT22;20423;49.448;9.056;2023-05-07T07:00:54;17.10;99.90
34147;DHT22;20423;49.448;9.056;2023-05-07T07:03:21;17.20;99.90
34147;DHT22;20423;49.448;9.056;2023-05-07T07:05:47;17.40;99.90
34147;DHT22;20423;49.448;9.056;2023-05-07T07:08:12;17.60;99.90
34147;DHT22;20423;49.448;9.056;2023-05-07T07:10:38;17.60;99.90
34147;DHT22;20423;49.448;9.056;2023-05-07T07:13:04;17.40;99.90
34147;DHT22;20423;49.448;9.056;2023-05-07T07:15:30;17.30;99.90
34147;DHT22;20423;49.448;9.056;2023-05-07T07:17:56;17.60;99.90
34147;DHT22;20423;49.448;9.056;2023-05-07T07:20:23;18.00;99.90
34147;DHT22;20423;49.448;9.056;2023-05-07T07:22:49;18.20;99.90
34147;DHT22;20423;49.448;9.056;2023-05-07T07:25:16;18.00;99.90
34147;DHT22;20423;49.448;9.056;2023-05-07T07:27:42;18.00;99.90
34147;DHT22;20423;49.448;9.056;2023-05-07T07:30:09;17.90;99.90
34147;DHT22;20423;49.448;9.056;2023-05-07T07:32:37;17.80;99.90
34147;DHT22;20423;49.448;9.056;2023-05-07T07:35:04;17.70;99.90
34147;DHT22;20423;49.448;9.056;2023-05-07T07:37:31;17.90;99.90
34147;DHT22;20423;49.448;9.056;2023-05-07T07:39:57;17.80;99.90
34147;DHT22;20423;49.448;9.056;2023-05-07T07:42:23;17.80;99.90
34147;DHT22;20423;49.448;9.056;2023-05-07T07:44:48;17.80;99.90
34147;DHT22;20423;49.448;9.056;2023-05-07T07:47:17;18.20;99.90
34147;DHT22;20423;49.448;9.056;2023-05-07T07:49:43;18.60;99.90
34147;DHT22;20423;49.448;9.056;2023-05-07T07:52:10;19.10;99.90
34147;DHT22;20423;49.448;9.056;2023-05-07T07:54:37;19.50;99.90
34147;DHT22;20423;49.448;9.056;2023-05-07T07:57:05;20.00;99.90
34147;DHT22;20423;49.448;9.056;2023-05-07T07:59:32;20.50;99.90
34147;DHT22;20423;49.448;9.056;2023-05-07T08:01:58;20.50;99.90
34147;DHT22;20423;49.448;9.056;2023-05-07T08:04:26;20.40;99.90
34147;DHT22;20423;49.448;9.056;2023-05-07T08:06:54;20.20;99.90
34147;DHT22;20423;49.448;9.056;2023-05-07T08:09:20;20.30;99.90
34147;DHT22;20423;49.448;9.056;2023-05-07T08:11:48;20.00;99.90
34147;DHT22;20423;49.448;9.056;2023-05-07T08:14:13;20.60;99.90
34147;DHT22;20423;49.448;9.056;2023-05-07T08:16:42;21.30;99.90
34147;DHT22;20423;49.448;9.056;2023-05-07T08:19:07;21.50;99.90
34147;DHT22;20423;49.448;9.056;2023-05-07T08:21:34;21.90;99.90
34147;DHT22;20423;49.448;9.056;2023-05-07T08:23:59;21.70;99.90
34147;DHT22;20423;49.448;9.056;2023-05-07T08:26:25;21.70;99.90
34147;DHT22;20423;49.448;9.056;2023-05-07T08:29:00;22.00;99.90
34147;DHT22;20423;49.448;9.056;2023-05-07T08:31:26;22.70;99.90
34147;DHT22;20423;49.448;9.056;2023-05-07T08:33:52;23.00;99.90
34147;DHT22;20423;49.448;9.056;2023-05-07T08:36:18;22.60;99.90
34147;DHT22;20423;49.448;9.056;2023-05-07T08:38:45;22.20;99.90
34147;DHT22;20423;49.448;9.056;2023-05-07T08:41:11;22.70;99.90
34147;DHT22;20423;49.448;9.056;2023-05-07T08:43:40;23.40;99.90
34147;DHT22;20423;49.448;9.056;2023-05-07T08:46:09;24.70;99.90
34147;DHT22;20423;49.448;9.056;2023-05-07T08:48:39;24.50;99.90
34147;DHT22;20423;49.448;9.056;2023-05-07T08:51:13;24.00;99.90
34147;DHT22;20423;49.448;9.056;2023-05-07T08:53:43;23.50;99.90
34147;DHT22;20423;49.448;9.056;2023-05-07T08:56:13;23.20;99.90
34147;DHT22;20423;49.448;9.056;2023-05-07T08:58:44;24.00;99.90
34147;DHT22;20423;49.448;9.056;2023-05-07T09:01:14;23.80;99.90
34147;DHT22;20423;49.448;9.056;2023-05-07T09:03:43;23.60;99.90
34147;DHT22;20423;49.448;9.056;2023-05-07T09:06:09;22.90;99.90
34147;DHT22;20423;49.448;9.056;2023-05-07T09:08:36;22.20;99.90
34147;DHT22;20423;49.448;9.056;2023-05-07T09:11:03;21.60;99.90
34147;DHT22;20423;49.448;9.056;2023-05-07T09:13:30;21.70;99.90
34147;DHT22;20423;49.448;9.056;2023-05-07T09:15:57;21.90;99.90
34147;DHT22;20423;49.448;9.056;2023-05-07T09:18:24;22.50;99.90
34147;DHT22;20423;49.448;9.056;2023-05-07T09:21:19;22.60;99.90
34147;DHT22;20423;49.448;9.056;2023-05-07T09:23:51;22.50;99.90
34147;DHT22;20423;49.448;9.056;2023-05-07T09:26:21;22.60;99.90
34147;DHT22;20423;49.448;9.056;2023-05-07T09:28:48;22.60;99.90
34147;DHT22;20423;49.448;9.056;2023-05-07T09:31:14;22.70;99.90
34147;DHT22;20423;49.448;9.056;2023-05-07T09:33:41;22.90;99.90
34147;DHT22;20423;49.448;9.056;2023-05-07T09:36:09;23.30;99.90
34147;DHT22;20423;49.448;9.056;2023-05-07T09:38:38;23.70;99.90
34147;DHT22;20423;49.448;9.056;2023-05-07T09:44:16;23.80;99.90
34147;DHT22;20423;49.448;9.056;2023-05-07T09:46:53;23.40;99.90
34147;DHT22;20423;49.448;9.056;2023-05-07T09:49:24;23.40;99.90
34147;DHT22;20423;49.448;9.056;2023-05-07T09:52:00;23.20;99.90
34147;DHT22;20423;49.448;9.056;2023-05-07T09:54:26;23.10;99.90
34147;DHT22;20423;49.448;9.056;2023-05-07T09:57:06;22.90;99.90
34147;DHT22;20423;49.448;9.056;2023-05-07T09:59:34;22.80;99.90
34147;DHT22;20423;49.448;9.056;2023-05-07T10:02:05;23.30;99.90
34147;DHT22;20423;49.448;9.056;2023-05-07T10:04:38;23.10;99.90
34147;DHT22;20423;49.448;9.056;2023-05-07T10:07:07;22.90;99.90
34147;DHT22;20423;49.448;9.056;2023-05-07T10:09:36;23.20;99.90
34147;DHT22;20423;49.448;9.056;2023-05-07T10:12:06;23.40;99.90
34147;DHT22;20423;49.448;9.056;2023-05-07T10:14:33;23.70;99.90
34147;DHT22;20423;49.448;9.056;2023-05-07T10:20:48;24.60;99.90
34147;DHT22;20423;49.448;9.056;2023-05-07T10:23:19;24.30;99.90
34147;DHT22;20423;49.448;9.056;2023-05-07T10:25:48;24.00;99.90
34147;DHT22;20423;49.448;9.056;2023-05-07T10:28:19;24.20;99.90
34147;DHT22;20423;49.448;9.056;2023-05-07T10:33:32;24.30;99.90
34147;DHT22;20423;49.448;9.056;2023-05-07T10:36:01;24.50;99.90
34147;DHT22;20423;49.448;9.056;2023-05-07T10:38:30;24.80;99.50
34147;DHT22;20423;49.448;9.056;2023-05-07T10:40:58;24.70;99.90
34147;DHT22;20423;49.448;9.056;2023-05-07T10:43:24;24.80;99.00
34147;DHT22;20423;49.448;9.056;2023-05-07T10:46:15;25.40;99.30
34147;DHT22;20423;49.448;9.056;2023-05-07T10:51:35;25.80;95.20
34147;DHT22;20423;49.448;9.056;2023-05-07T10:56:44;25.20;94.00
34147;DHT22;20423;49.448;9.056;2023-05-07T11:05:23;24.40;94.30
34147;DHT22;20423;49.448;9.056;2023-05-07T11:08:09;24.80;95.20
34147;DHT22;20423;49.448;9.056;2023-05-07T11:10:56;25.30;95.10
34147;DHT22;20423;49.448;9.056;2023-05-07T11:13:49;26.10;92.70
34147;DHT22;20423;49.448;9.056;2023-05-07T11:16:43;26.10;90.30
34147;DHT22;20423;49.448;9.056;2023-05-07T11:19:53;26.10;92.30
34147;DHT22;20423;49.448;9.056;2023-05-07T11:22:40;26.40;91.60
34147;DHT22;20423;49.448;9.056;2023-05-07T11:25:18;26.00;92.30
34147;DHT22;20423;49.448;9.056;2023-05-07T11:27:46;26.00;90.50
34147;DHT22;20423;49.448;9.056;2023-05-07T11:30:18;25.20;91.60
34147;DHT22;20423;49.448;9.056;2023-05-07T11:32:47;24.60;93.40
34147;DHT22;20423;49.448;9.056;2023-05-07T11:35:15;24.60;93.80
34147;DHT22;20423;49.448;9.056;2023-05-07T11:37:44;24.70;92.90
34147;DHT22;20423;49.448;9.056;2023-05-07T11:40:12;24.70;92.80
34147;DHT22;20423;49.448;9.056;2023-05-07T11:42:40;23.90;91.90
34147;DHT22;20423;49.448;9.056;2023-05-07T11:45:08;23.70;94.40
34147;DHT22;20423;49.448;9.056;2023-05-07T11:47:34;23.70;92.10
34147;DHT22;20423;49.448;9.056;2023-05-07T11:50:08;23.30;94.90
34147;DHT22;20423;49.448;9.056;2023-05-07T11:52:34;23.20;95.10
34147;DHT22;20423;49.448;9.056;2023-05-07T11:55:01;23.40;96.40
34147;DHT22;20423;49.448;9.056;2023-05-07T11:57:29;22.60;95.10
34147;DHT22;20423;49.448;9.056;2023-05-07T11:59:59;22.10;97.10
34147;DHT22;20423;49.448;9.056;2023-05-07T12:02:27;22.10;98.60
34147;DHT22;20423;49.448;9.056;2023-05-07T12:04:54;22.00;98.60
34147;DHT22;20423;49.448;9.056;2023-05-07T12:07:20;21.80;98.40
34147;DHT22;20423;49.448;9.056;2023-05-07T12:09:47;22.00;99.50
34147;DHT22;20423;49.448;9.056;2023-05-07T12:12:13;22.50;99.50
34147;DHT22;20423;49.448;9.056;2023-05-07T12:14:45;23.20;99.70
34147;DHT22;20423;49.448;9.056;2023-05-07T12:17:13;23.50;97.30
34147;DHT22;20423;49.448;9.056;2023-05-07T12:19:41;23.40;99.20
34147;DHT22;20423;49.448;9.056;2023-05-07T12:22:08;23.70;98.00
34147;DHT22;20423;49.448;9.056;2023-05-07T12:24:56;24.00;99.00
34147;DHT22;20423;49.448;9.056;2023-05-07T12:27:22;24.80;97.40
34147;DHT22;20423;49.448;9.056;2023-05-07T12:29:49;25.50;97.60
34147;DHT22;20423;49.448;9.056;2023-05-07T12:32:20;25.90;95.40
34147;DHT22;20423;49.448;9.056;2023-05-07T12:34:47;26.30;94.10
34147;DHT22;20423;49.448;9.056;2023-05-07T12:37:15;26.40;93.50
34147;DHT22;20423;49.448;9.056;2023-05-07T12:42:36;27.50;92.90
34147;DHT22;20423;49.448;9.056;2023-05-07T12:47:35;26.60;94.60
34147;DHT22;20423;49.448;9.056;2023-05-07T12:50:11;26.70;94.10
34147;DHT22;20423;49.448;9.056;2023-05-07T12:52:37;26.90;93.50
34147;DHT22;20423;49.448;9.056;2023-05-07T12:55:07;26.80;93.20
34147;DHT22;20423;49.448;9.056;2023-05-07T12:57:45;26.60;93.50
34147;DHT22;20423;49.448;9.056;2023-05-07T13:00:11;26.80;93.50
34147;DHT22;20423;49.448;9.056;2023-05-07T13:02:39;27.30;92.90
34147;DHT22;20423;49.448;9.056;2023-05-07T13:05:05;27.90;92.40
34147;DHT22;20423;49.448;9.056;2023-05-07T13:07:30;28.20;92.70
34147;DHT22;20423;49.448;9.056;2023-05-07T13:09:56;27.70;91.30
34147;DHT22;20423;49.448;9.056;2023-05-07T13:12:22;27.70;91.20
34147;DHT22;20423;49.448;9.056;2023-05-07T13:14:48;27.90;90.20
34147;DHT22;20423;49.448;9.056;2023-05-07T13:17:13;27.40;91.70
34147;DHT22;20423;49.448;9.056;2023-05-07T13:19:39;27.10;92.00
34147;DHT22;20423;49.448;9.056;2023-05-07T13:22:05;27.30;92.30
34147;DHT22;20423;49.448;9.056;2023-05-07T13:24:31;26.30;92.60
34147;DHT22;20423;49.448;9.056;2023-05-07T13:26:57;26.00;94.10
34147;DHT22;20423;49.448;9.056;2023-05-07T13:29:22;26.40;93.20
34147;DHT22;20423;49.448;9.056;2023-05-07T13:31:58;26.50;93.40
34147;DHT22;20423;49.448;9.056;2023-05-07T13:34:36;26.20;93.20
34147;DHT22;20423;49.448;9.056;2023-05-07T13:37:02;25.90;93.00
34147;DHT22;20423;49.448;9.056;2023-05-07T13:39:28;25.60;93.30
34147;DHT22;20423;49.448;9.056;2023-05-07T13:41:54;25.70;94.00
34147;DHT22;20423;49.448;9.056;2023-05-07T13:44:20;25.50;93.80
34147;DHT22;20423;49.448;9.056;2023-05-07T13:46:46;25.40;94.10
34147;DHT22;20423;49.448;9.056;2023-05-07T13:49:12;24.80;94.90
34147;DHT22;20423;49.448;9.056;2023-05-07T13:51:38;24.40;95.80
34147;DHT22;20423;49.448;9.056;2023-05-07T13:54:19;24.00;96.30
34147;DHT22;20423;49.448;9.056;2023-05-07T13:56:44;23.70;95.30
34147;DHT22;20423;49.448;9.056;2023-05-07T13:59:10;23.80;96.50
34147;DHT22;20423;49.448;9.056;2023-05-07T14:01:36;24.30;94.60
34147;DHT22;20423;49.448;9.056;2023-05-07T14:04:01;24.40;96.10
34147;DHT22;20423;49.448;9.056;2023-05-07T14:06:27;24.00;96.00
34147;DHT22;20423;49.448;9.056;2023-05-07T14:08:53;23.70;96.90
34147;DHT22;20423;49.448;9.056;2023-05-07T14:11:18;23.60;96.50
34147;DHT22;20423;49.448;9.056;2023-05-07T14:13:44;23.30;97.80
34147;DHT22;20423;49.448;9.056;2023-05-07T14:16:10;22.80;98.00
34147;DHT22;20423;49.448;9.056;2023-05-07T14:18:35;22.50;99.70
34147;DHT22;20423;49.448;9.056;2023-05-07T14:21:03;22.10;99.90
34147;DHT22;20423;49.448;9.056;2023-05-07T14:23:29;21.90;99.90
34147;DHT22;20423;49.448;9.056;2023-05-07T14:25:55;21.50;99.90
34147;DHT22;20423;49.448;9.056;2023-05-07T14:28:23;21.10;99.90
34147;DHT22;20423;49.448;9.056;2023-05-07T14:30:49;21.00;99.90
34147;DHT22;20423;49.448;9.056;2023-05-07T14:33:15;20.80;99.90
34147;DHT22;20423;49.448;9.056;2023-05-07T14:35:40;20.60;99.90
34147;DHT22;20423;49.448;9.056;2023-05-07T14:38:25;20.40;99.90
34147;DHT22;20423;49.448;9.056;2023-05-07T14:40:50;20.30;99.90
34147;DHT22;20423;49.448;9.056;2023-05-07T14:46:33;20.10;99.90
34147;DHT22;20423;49.448;9.056;2023-05-07T14:48:59;19.90;99.90
34147;DHT22;20423;49.448;9.056;2023-05-07T14:51:40;19.80;99.90
34147;DHT22;20423;49.448;9.056;2023-05-07T14:54:05;19.70;99.90
34147;DHT22;20423;49.448;9.056;2023-05-07T14:56:41;19.70;99.90
34147;DHT22;20423;49.448;9.056;2023-05-07T14:59:08;19.60;99.90
34147;DHT22;20423;49.448;9.056;2023-05-07T15:01:37;19.50;99.90
34147;DHT22;20423;49.448;9.056;2023-05-07T15:04:04;19.50;99.90
34147;DHT22;20423;49.448;9.056;2023-05-07T15:06:30;19.40;99.90
34147;DHT22;20423;49.448;9.056;2023-05-07T15:08:56;19.30;99.90
34147;DHT22;20423;49.448;9.056;2023-05-07T15:11:22;19.20;99.90
34147;DHT22;20423;49.448;9.056;2023-05-07T15:13:48;19.10;99.90
34147;DHT22;20423;49.448;9.056;2023-05-07T15:16:14;18.70;99.90
34147;DHT22;20423;49.448;9.056;2023-05-07T15:18:40;18.30;99.90
34147;DHT22;20423;49.448;9.056;2023-05-07T15:21:05;17.80;99.90
34147;DHT22;20423;49.448;9.056;2023-05-07T15:23:32;17.40;99.90
34147;DHT22;20423;49.448;9.056;2023-05-07T15:25:58;17.00;99.90
34147;DHT22;20423;49.448;9.056;2023-05-07T15:28:23;16.70;99.90
34147;DHT22;20423;49.448;9.056;2023-05-07T15:30:51;16.30;99.90
34147;DHT22;20423;49.448;9.056;2023-05-07T15:33:16;15.90;99.90
34147;DHT22;20423;49.448;9.056;2023-05-07T15:35:42;15.40;99.90
34147;DHT22;20423;49.448;9.056;2023-05-07T15:38:27;14.90;99.90
34147;DHT22;20423;49.448;9.056;2023-05-07T15:40:52;14.40;99.90
34147;DHT22;20423;49.448;9.056;2023-05-07T15:43:18;14.10;99.90
34147;DHT22;20423;49.448;9.056;2023-05-07T15:45:44;13.80;99.90
34147;DHT22;20423;49.448;9.056;2023-05-07T15:51:16;13.40;99.90
34147;DHT22;20423;49.448;9.056;2023-05-07T15:53:43;13.20;99.90
34147;DHT22;20423;49.448;9.056;2023-05-07T15:56:09;13.10;99.90
34147;DHT22;20423;49.448;9.056;2023-05-07T15:58:35;13.10;99.90
34147;DHT22;20423;49.448;9.056;2023-05-07T16:01:01;13.00;99.90
34147;DHT22;20423;49.448;9.056;2023-05-07T16:03:27;13.00;99.90
34147;DHT22;20423;49.448;9.056;2023-05-07T16:05:54;13.10;99.90
34147;DHT22;20423;49.448;9.056;2023-05-07T16:08:22;13.10;99.90
34147;DHT22;20423;49.448;9.056;2023-05-07T16:10:48;13.20;99.90
34147;DHT22;20423;49.448;9.056;2023-05-07T16:13:14;13.20;99.90
34147;DHT22;20423;49.448;9.056;2023-05-07T16:15:44;13.20;99.90